Chicago, Illinois
Traffic Map
Current Weather Conditions
Chicago, Illinois
Few Clouds
Few Clouds
68°
Feels Like: 68°
Wind Chill: 68° Ceiling: Unl
Heat Index: 68° Visibility: 10mi
Dew Point: 57° Wind: 5mph
Humidity: 68% Direction: 290° (WNW)
Pressure: 30.03in Gusts: 0mph
Raw Report DataKMDW 301251Z 29004KT 10SM FEW130 FEW250 20/14 A3003 RMK AO2 SLP162 T02000139
Traffic Incident Summary
Active as of:
Severity:
Category:
InformationThere was an issue retrieving the traffic information for this location. Please try a different location or try again shortly.
Advertisements
Track Severe Weather on mobile